createdAt,value
2023-04-12T00:04:45.421Z,4
2023-04-12T00:10:45.123Z,7
2023-04-12T00:16:46.192Z,2
2023-04-12T00:22:45.950Z,3
2023-04-12T00:28:45.168Z,4
2023-04-12T00:34:45.216Z,6
2023-04-12T00:40:45.410Z,3
2023-04-12T00:46:45.759Z,2
2023-04-12T00:52:45.590Z,3
2023-04-12T00:58:46.438Z,4
2023-04-12T01:04:45.216Z,6
2023-04-12T01:10:44.937Z,2
2023-04-12T01:16:45.043Z,3
2023-04-12T01:22:45.282Z,5
2023-04-12T01:28:44.975Z,2
2023-04-12T01:34:45.365Z,2
2023-04-12T01:40:45.193Z,3
2023-04-12T01:46:45.200Z,2
2023-04-12T01:52:45.042Z,4
2023-04-12T01:58:45.362Z,2
2023-04-12T02:04:45.370Z,5
2023-04-12T02:10:45.268Z,4
2023-04-12T02:16:46.472Z,3
2023-04-12T02:22:45.268Z,2
2023-04-12T02:28:45.170Z,2
2023-04-12T02:34:48.145Z,2
2023-04-12T02:40:49.799Z,3
2023-04-12T02:46:47.287Z,3
2023-04-12T02:52:50.414Z,5
2023-04-12T02:58:47.415Z,4
2023-04-12T03:04:47.636Z,5
2023-04-12T06:26:44.471Z,2
2023-04-12T06:33:35.530Z,3
2023-04-12T06:39:34.814Z,2
2023-04-12T06:45:44.665Z,2
2023-04-12T06:51:40.608Z,2
2023-04-12T06:57:36.279Z,2
2023-04-12T07:08:26.280Z,1
2023-04-12T07:14:34.988Z,1
2023-04-12T07:20:21.381Z,1
2023-04-12T07:27:35.168Z,1
2023-04-12T07:31:28.857Z,1
2023-04-12T07:32:48.726Z,1
2023-04-12T07:32:48.762Z,1
2023-04-12T07:32:48.887Z,1
2023-04-12T07:32:48.933Z,1
2023-04-12T07:34:04.194Z,2
2023-04-12T07:34:04.198Z,2
2023-04-12T07:35:11.257Z,2
2023-04-12T07:35:15.044Z,2
2023-04-12T07:35:19.058Z,2
2023-04-12T07:39:35.092Z,1
2023-04-12T07:42:29.419Z,1
2023-04-12T07:42:29.528Z,1
2023-04-12T07:42:29.657Z,1
2023-04-12T07:42:35.462Z,1
2023-04-12T07:44:22.944Z,1
2023-04-12T07:44:22.985Z,1
2023-04-12T07:44:23.107Z,1
2023-04-12T07:45:35.495Z,1
2023-04-12T07:46:20.178Z,1
2023-04-12T07:48:07.237Z,1
2023-04-12T07:48:07.340Z,1
2023-04-12T07:48:07.572Z,1
2023-04-12T07:51:35.468Z,1
2023-04-12T07:57:34.965Z,2
2023-04-12T08:03:35.607Z,2
2023-04-12T08:09:34.782Z,2
2023-04-12T08:15:36.990Z,1
2023-04-12T08:21:35.474Z,1
2023-04-12T08:27:34.737Z,1
2023-04-12T08:33:35.204Z,2
2023-04-12T08:38:55.897Z,1
2023-04-12T08:45:34.907Z,1
2023-04-12T08:51:35.236Z,2
2023-04-12T08:57:35.391Z,3
2023-04-12T09:03:35.087Z,1
2023-04-12T09:09:35.172Z,1
2023-04-12T09:15:35.098Z,1
2023-04-12T09:21:35.636Z,1
2023-04-12T09:27:35.127Z,2
2023-04-12T09:32:38.508Z,2
2023-04-12T09:37:48.431Z,1
2023-04-12T09:38:04.273Z,1
2023-04-12T09:38:04.645Z,1
2023-04-12T09:38:04.710Z,1
2023-04-12T09:39:34.728Z,1
2023-04-12T09:39:34.757Z,1
2023-04-12T09:39:35.740Z,2
2023-04-12T09:42:29.911Z,2
2023-04-12T09:42:33.035Z,2
2023-04-12T09:42:35.396Z,2
2023-04-12T09:43:46.444Z,2
2023-04-12T09:43:46.468Z,2
2023-04-12T09:43:46.487Z,2
2023-04-12T09:44:53.174Z,1
2023-04-12T09:44:53.313Z,1
2023-04-12T09:44:54.308Z,1
2023-04-12T09:45:45.578Z,1
2023-04-12T09:45:58.422Z,2
2023-04-12T09:45:59.271Z,2
2023-04-12T09:45:59.310Z,2
2023-04-12T09:49:20.009Z,1
2023-04-12T09:54:34.821Z,1
2023-04-12T10:00:43.381Z,1
2023-04-12T10:06:35.267Z,2
2023-04-12T10:12:35.445Z,1
2023-04-12T10:18:35.445Z,1
2023-04-12T10:24:34.793Z,2
2023-04-12T10:30:42.823Z,2
2023-04-12T10:36:34.653Z,1
2023-04-12T10:42:34.564Z,1
2023-04-12T10:48:34.693Z,3
2023-04-12T10:54:34.482Z,2
2023-04-12T11:00:37.156Z,1
2023-04-12T11:06:35.233Z,2
2023-04-12T11:12:35.027Z,2
2023-04-12T11:18:34.845Z,1
2023-04-12T11:24:34.621Z,3
2023-04-12T11:30:49.141Z,2
2023-04-12T11:36:35.814Z,2
2023-04-12T11:42:35.260Z,2
2023-04-12T11:48:35.332Z,2
2023-04-12T11:54:35.093Z,2
2023-04-12T12:00:54.191Z,4
2023-04-12T12:06:34.888Z,3
2023-04-12T12:12:35.046Z,5
2023-04-12T12:18:34.817Z,6
2023-04-12T12:24:39.745Z,6
2023-04-12T12:30:53.320Z,4
2023-04-12T12:36:34.880Z,3
2023-04-12T12:42:35.027Z,4
2023-04-12T12:48:35.262Z,3
2023-04-12T13:00:59.354Z,2
2023-04-12T13:06:35.888Z,4
2023-04-12T13:12:35.652Z,2
2023-04-12T13:18:35.882Z,2
2023-04-12T13:24:36.843Z,2
2023-04-12T13:30:51.359Z,2
2023-04-12T13:42:35.830Z,2
2023-04-12T13:48:35.768Z,2
2023-04-12T13:54:35.306Z,5
2023-04-12T14:01:12.518Z,2
2023-04-12T14:12:35.292Z,2
2023-04-12T14:18:36.132Z,2
2023-04-12T14:24:34.786Z,2
2023-04-12T14:30:44.236Z,2
2023-04-12T14:36:35.467Z,2
2023-04-12T14:42:36.207Z,3
2023-04-12T14:48:36.061Z,4
2023-04-12T14:54:35.495Z,3
2023-04-12T15:00:49.655Z,3
2023-04-12T15:06:37.273Z,2
2023-04-12T15:12:35.452Z,5
2023-04-12T15:18:36.373Z,3
2023-04-12T15:24:35.001Z,4
2023-04-12T15:30:39.268Z,7
2023-04-12T15:36:36.037Z,4
2023-04-12T15:42:35.811Z,3
2023-04-12T15:48:35.364Z,2
2023-04-12T15:54:35.929Z,2
2023-04-12T16:00:59.321Z,3
2023-04-12T16:06:35.783Z,3
2023-04-12T16:12:34.766Z,3
2023-04-12T16:18:36.252Z,4
2023-04-12T16:30:38.798Z,3
2023-04-12T16:36:35.891Z,3
2023-04-12T16:42:36.763Z,1
2023-04-12T16:48:36.357Z,1
2023-04-12T16:54:34.844Z,1
2023-04-12T17:01:07.359Z,1
2023-04-12T17:12:35.727Z,1
2023-04-12T17:18:37.033Z,3
2023-04-12T17:24:35.541Z,2
2023-04-12T17:30:46.237Z,2
2023-04-12T17:42:35.279Z,2
2023-04-12T17:48:36.351Z,2
2023-04-12T17:54:34.771Z,2
2023-04-12T18:00:53.550Z,2
2023-04-12T18:06:35.400Z,2
2023-04-12T18:12:35.092Z,2
2023-04-12T18:18:35.801Z,2
2023-04-12T18:24:36.504Z,2
2023-04-12T18:30:44.212Z,3
2023-04-12T18:36:35.228Z,2
2023-04-12T18:42:35.538Z,4
2023-04-12T18:48:35.441Z,4
2023-04-12T18:54:35.452Z,4
2023-04-12T19:00:37.150Z,3
2023-04-12T19:06:36.325Z,3
2023-04-12T19:12:35.729Z,3
2023-04-12T19:18:35.875Z,4
2023-04-12T19:24:35.282Z,4
2023-04-12T19:30:37.018Z,4
2023-04-12T19:36:35.552Z,5
2023-04-12T19:42:35.533Z,3
2023-04-12T19:48:34.858Z,4
2023-04-12T19:54:34.767Z,7
2023-04-12T20:00:59.782Z,4
2023-04-12T20:06:35.416Z,4
2023-04-12T20:12:35.734Z,4
2023-04-12T20:18:35.615Z,4
2023-04-12T20:24:34.845Z,4
2023-04-12T20:30:43.148Z,9
2023-04-12T20:36:36.296Z,4
2023-04-12T20:42:34.729Z,4
2023-04-12T20:48:34.791Z,4
2023-04-12T20:54:35.831Z,4
2023-04-12T21:00:45.392Z,3
2023-04-12T21:06:35.948Z,2
2023-04-12T21:12:35.375Z,2
2023-04-12T21:18:34.961Z,2
2023-04-12T21:24:34.870Z,2
2023-04-12T21:30:36.176Z,1
2023-04-12T21:36:36.875Z,2
2023-04-12T21:42:34.755Z,1
2023-04-12T21:48:35.108Z,1
2023-04-12T21:54:34.917Z,1
2023-04-12T22:00:59.205Z,1
2023-04-12T22:06:36.054Z,1
2023-04-12T22:12:34.784Z,1
2023-04-12T22:18:35.375Z,2
2023-04-12T22:30:39.296Z,2
2023-04-12T22:36:35.912Z,1
2023-04-12T22:42:34.974Z,1
2023-04-12T22:48:35.551Z,2
2023-04-12T22:54:34.872Z,2
2023-04-12T23:00:54.128Z,1
2023-04-12T23:06:35.359Z,2
2023-04-12T23:12:35.288Z,1
2023-04-12T23:18:34.743Z,2
2023-04-12T23:24:35.830Z,1
2023-04-12T23:30:50.899Z,1
2023-04-12T23:36:35.274Z,1
2023-04-12T23:42:35.173Z,2
2023-04-12T23:48:34.917Z,2
2023-04-12T23:54:34.867Z,2
